Chesilhurst, New Jersey
Current Conditions -  °F | °C
As of 2:54 AM on Wednesday 26 Nov 2014 (Local Time) from KVAY Reporting Station
Overcast Overcast  
Wind Chill: 42°   Ceiling: 7000
Heat Index: 45°   Visibility: 10mi
Dew Point: 35°   Wind: 6mph
Humidity: 68%   Direction: 350°N
Pressure: 30.17"   Gusts: NA
Location:  39.719°N, 74.8185°W
Report Text: KVAY 260754Z AUTO 35005KT 10SM OVC070 07/02 A3017 RMK AO2 PRESFR SLP215 T00720017
Loading
Personal Weather Stations






























Interactive Weather Map New forecast layout! Learn more

10-Day Weather Forecast

Advertisements
Track Severe Weather on mobile